FDX477 KGTF-KBIL
Flight info
| Callsign | FDX477 |
|---|---|
| Flight time | N/A |
| Altitude | 23000 |
| Route | GTF EDYTH CRAZI4 |
| Aircraft | A306/H-SDE3FGHIRWY/LB1 |
Departure
| Time | 2026-04-24 17:11 |
|---|---|
| Airport | Great Falls International Airport (KGTF) |
Arrival
| Time | N/A |
|---|---|
| Airport | Billings Logan International Airport (KBIL) |
| Time | Latitude | Longitude | Altitude | Speed | Heading |
|---|---|---|---|---|---|
| 2026-04-24 17:01 | 47.48965 | -111.35905 | 3671 ft | 0 kts | 315° |
| 2026-04-24 17:02 | 47.48963 | -111.35902 | 3671 ft | 3 kts | 315° |
| 2026-04-24 17:02 | 47.48944 | -111.35874 | 3671 ft | 4 kts | 315° |
| 2026-04-24 17:02 | 47.48925 | -111.35849 | 3671 ft | 4 kts | 336° |
| 2026-04-24 17:02 | 47.48900 | -111.35843 | 3671 ft | 4 kts | 20° |
| 2026-04-24 17:03 | 47.48887 | -111.35854 | 3671 ft | 2 kts | 45° |
| 2026-04-24 17:05 | 47.48889 | -111.35851 | 3671 ft | 3 kts | 45° |
| 2026-04-24 17:06 | 47.48924 | -111.35800 | 3671 ft | 10 kts | 44° |
| 2026-04-24 17:06 | 47.49054 | -111.35596 | 3669 ft | 15 kts | 63° |
| 2026-04-24 17:06 | 47.49015 | -111.35471 | 3668 ft | 15 kts | 134° |
| 2026-04-24 17:07 | 47.48939 | -111.35354 | 3667 ft | 14 kts | 133° |
| 2026-04-24 17:07 | 47.48866 | -111.35293 | 3669 ft | 11 kts | 188° |
| 2026-04-24 17:07 | 47.48731 | -111.35463 | 3671 ft | 11 kts | 181° |
| 2026-04-24 17:08 | 47.48739 | -111.35381 | 3670 ft | 0 kts | 47° |
| 2026-04-24 17:08 | 47.48743 | -111.35376 | 3670 ft | 3 kts | 47° |
| 2026-04-24 17:08 | 47.48776 | -111.35325 | 3670 ft | 10 kts | 46° |
| 2026-04-24 17:09 | 47.48887 | -111.35289 | 3669 ft | 0 kts | 317° |
| 2026-04-24 17:09 | 47.48893 | -111.35297 | 3669 ft | 5 kts | 317° |
| 2026-04-24 17:10 | 47.48939 | -111.35362 | 3667 ft | 9 kts | 316° |
| 2026-04-24 17:10 | 47.48524 | -111.36038 | 3672 ft | 96 kts | 225° |
| 2026-04-24 17:11 | 47.46192 | -111.39505 | 4408 ft | 191 kts | 227° |
| 2026-04-24 17:12 | 47.39924 | -111.35873 | 6970 ft | 304 kts | 107° |